ADDS METAR Data INFO
IDs: Format: Raw Decoded Include TAF

Data at: 0434 UTC 28 Jul 2017

KUTS 280353Z AUTO VRB05KT 10SM CLR 29/22 A2995 RMK AO2 SLP136 T02940217
KUTS 280253Z AUTO 17005KT 10SM CLR 31/22 A2994 RMK AO2 SLP132 T03060217 55002
KUTS 280153Z AUTO 16009KT 10SM CLR 32/21 A2994 RMK AO2 SLP131 T03220206
KUTS 280053Z AUTO 17005KT 10SM CLR 34/18 A2994 RMK AO2 SLP132 T03440183
KUTS 272353Z AUTO 17003KT 10SM CLR 34/18 A2995 RMK AO2 SLP135 T03440183 10361 20333 56017
KUTS 272253Z AUTO 19006KT 10SM CLR 36/19 A2995 RMK AO2 SLP137 T03560189
KUTS 272153Z AUTO 10SM CLR 36/18 A2997 RMK AO2 SLP142 T03560183
KUTS 272053Z AUTO 21004KT 10SM CLR 35/18 A3000 RMK AO2 SLP152 T03500178 58023
KUTS 271953Z AUTO 10SM CLR 35/18 A3002 RMK AO2 SLP159 T03500183
KUTS 271853Z AUTO 25005KT 10SM FEW049 34/20 A3004 RMK AO2 SLP168 T03440200
KUTS 271753Z AUTO VRB04KT 10SM CLR 33/21 A3006 RMK AO2 SLP175 T03330206 10333 20250 58003
KUTS 271653Z AUTO 19007KT 10SM CLR 33/22 A3008 RMK AO2 SLP181 T03280217
KUTS 271553Z AUTO 24004KT 10SM FEW026 31/22 A3009 RMK AO2 SLP182 T03060222
KUTS 271453Z AUTO 23007KT 10SM CLR 30/23 A3007 RMK AO2 SLP178 T03000233 51007
KUTS 271353Z AUTO 22007KT 10SM CLR 28/23 A3007 RMK AO2 SLP177 T02830233
KUTS 271253Z AUTO 20005KT 10SM CLR 26/23 A3006 RMK AO2 SLP173 T02610233
KUTS 271153Z AUTO 19003KT 10SM CLR 25/23 A3005 RMK AO2 SLP170 T02500228 10267 20244 55000
KUTS 271053Z AUTO 18004KT 10SM CLR 24/23 A3004 RMK AO2 SLP167 T02440228
KUTS 270953Z AUTO 19004KT 10SM FEW014 25/23 A3004 RMK AO2 SLP168 T02500228
KUTS 270853Z AUTO VRB03KT 10SM CLR 26/23 A3005 RMK AO2 SLP171 T02560228 55001
KUTS 270753Z AUTO 19007KT 10SM CLR 27/22 A3005 RMK AO2 SLP170 T02670222
KUTS 270653Z AUTO 19005KT 10SM CLR 27/22 A3005 RMK AO2 SLP171 T02670222
KUTS 270553Z AUTO 19004KT 10SM CLR 27/22 A3006 RMK AO2 SLP172 T02670222 10350 20267 403610250 51005
KUTS 270453Z AUTO 17004KT 10SM CLR 28/23 A3005 RMK AO2 SLP169 T02780233
KUTS 270353Z AUTO 17003KT 10SM CLR 29/23 A3005 RMK AO2 SLP170 T02890228
KUTS 270253Z AUTO 16003KT 10SM CLR 30/23 A3004 RMK AO2 SLP167 T03000228 51010
KUTS 270153Z AUTO 17006KT 10SM CLR 30/22 A3003 RMK AO2 SLP163 T03000222
KUTS 270053Z AUTO 16007KT 10SM CLR 32/21 A3003 RMK AO2 SLP163 T03220211
KUTS 262353Z AUTO 16007KT 120V200 10SM CLR 35/20 A3001 RMK AO2 SLP157 T03500200 10361 20333 55012
KUTS 262253Z AUTO 16007KT 10SM CLR 36/19 A3001 RMK AO2 SLP154 T03560189
KUTS 262153Z AUTO VRB03KT 10SM CLR 35/19 A3003 RMK AO2 SLP162 T03500194
KUTS 262053Z AUTO VRB04KT 10SM SCT060 BKN070 35/19 A3004 RMK AO2 SLP168 T03500194 58018
KUTS 261953Z AUTO 22005KT 10SM FEW055 34/20 A3007 RMK AO2 SLP175 T03440200
KUTS 261853Z AUTO VRB05KT 10SM CLR 34/21 A3009 RMK AO2 SLP182 T03390206
KUTS 261753Z AUTO VRB04KT 10SM CLR 33/21 A3010 RMK AO2 SLP186 T03330211 10333 20261 58012
KUTS 261653Z AUTO 20008G16KT 10SM CLR 33/21 A3011 RMK AO2 SLP191 T03280211